createdAt,value
2018-12-19T00:01:50.204Z,3.40
2018-12-19T00:04:22.629Z,3.50
2018-12-19T00:06:54.971Z,3.50
2018-12-19T00:09:29.307Z,3.40
2018-12-19T00:12:01.640Z,3.40
2018-12-19T00:14:34.081Z,3.30
2018-12-19T00:17:06.383Z,3.40
2018-12-19T00:19:38.718Z,3.40
2018-12-19T00:22:11.015Z,3.40
2018-12-19T00:24:43.331Z,3.40
2018-12-19T00:27:15.651Z,3.40
2018-12-19T00:29:48.077Z,3.50
2018-12-19T00:32:20.383Z,3.40
2018-12-19T00:34:52.698Z,3.40
2018-12-19T00:37:25.016Z,3.40
2018-12-19T00:39:57.310Z,3.40
2018-12-19T00:42:29.604Z,3.40
2018-12-19T00:45:02.079Z,3.30
2018-12-19T00:47:34.607Z,3.40
2018-12-19T00:50:07.307Z,3.50
2018-12-19T00:52:39.698Z,3.50
2018-12-19T00:55:12.020Z,3.30
2018-12-19T00:57:44.312Z,3.40
2018-12-19T01:00:16.648Z,3.40
2018-12-19T01:02:48.965Z,3.40
2018-12-19T01:05:21.280Z,3.20
2018-12-19T01:07:53.576Z,3.30
2018-12-19T01:10:26.024Z,3.30
2018-12-19T01:12:58.313Z,3.40
2018-12-19T01:15:30.657Z,3.50
2018-12-19T01:18:03.070Z,3.40
2018-12-19T01:20:35.399Z,3.30
2018-12-19T01:23:07.698Z,3.30
2018-12-19T01:25:40.012Z,3.30
2018-12-19T01:28:12.316Z,3.40
2018-12-19T01:30:44.651Z,3.20
2018-12-19T01:33:16.939Z,3.30
2018-12-19T01:35:49.253Z,3.40
2018-12-19T01:38:21.546Z,3.40
2018-12-19T01:40:53.892Z,3.30
2018-12-19T01:43:26.189Z,3.30
2018-12-19T01:45:58.595Z,3.50
2018-12-19T01:48:30.891Z,3.40
2018-12-19T01:51:03.360Z,3.10
2018-12-19T01:53:35.636Z,3.30
2018-12-19T01:56:08.241Z,3.40
2018-12-19T01:58:40.508Z,3.20
2018-12-19T02:01:13.106Z,3.20
2018-12-19T02:03:45.495Z,3.10
2018-12-19T02:06:18.045Z,3.20
2018-12-19T02:08:50.400Z,3.20
2018-12-19T02:11:22.807Z,2.90
2018-12-19T02:13:55.096Z,3.00
2018-12-19T02:16:27.456Z,2.90
2018-12-19T02:18:59.859Z,3.00
2018-12-19T02:21:32.344Z,3.00
2018-12-19T02:24:05.096Z,2.90
2018-12-19T02:26:37.448Z,3.00
2018-12-19T02:29:09.755Z,2.90
2018-12-19T02:31:42.342Z,3.10
2018-12-19T02:34:14.884Z,2.90
2018-12-19T02:36:47.505Z,3.10
2018-12-19T02:39:19.831Z,3.00
2018-12-19T02:41:52.190Z,3.10
2018-12-19T02:44:24.508Z,3.00
2018-12-19T02:46:56.983Z,3.00
2018-12-19T02:49:29.296Z,3.10
2018-12-19T02:52:01.932Z,3.00
2018-12-19T02:54:34.232Z,3.00
2018-12-19T02:57:06.579Z,2.80
2018-12-19T02:59:38.877Z,2.80
2018-12-19T03:02:11.416Z,2.90
2018-12-19T03:04:43.724Z,2.80
2018-12-19T03:07:16.078Z,3.00
2018-12-19T03:09:48.400Z,2.90
2018-12-19T03:12:20.883Z,2.80
2018-12-19T03:14:53.203Z,2.80
2018-12-19T03:17:25.531Z,3.00
2018-12-19T03:19:57.832Z,3.10
2018-12-19T03:22:30.389Z,2.90
2018-12-19T03:25:02.913Z,3.00
2018-12-19T03:27:35.324Z,3.10
2018-12-19T03:30:07.832Z,3.10
2018-12-19T03:32:40.493Z,3.20
2018-12-19T03:35:12.777Z,3.20
2018-12-19T03:37:45.417Z,3.10
2018-12-19T03:40:17.750Z,3.00
2018-12-19T03:42:50.127Z,3.00
2018-12-19T03:45:22.454Z,2.90
2018-12-19T03:47:54.767Z,2.80
2018-12-19T03:50:27.204Z,2.90
2018-12-19T03:53:01.102Z,2.80
2018-12-19T03:55:33.432Z,2.90
2018-12-19T03:58:05.783Z,3.10
2018-12-19T04:00:38.109Z,3.00
2018-12-19T04:03:10.540Z,3.00
2018-12-19T04:05:42.859Z,2.90
2018-12-19T04:08:15.190Z,2.90
2018-12-19T04:10:47.544Z,3.00
2018-12-19T04:13:19.978Z,3.10
2018-12-19T04:15:52.331Z,3.20
2018-12-19T04:18:24.627Z,3.10
2018-12-19T04:20:56.968Z,3.10
2018-12-19T04:23:29.516Z,3.00
2018-12-19T04:26:01.865Z,2.90
2018-12-19T04:28:34.184Z,3.10
2018-12-19T04:31:06.545Z,3.00
2018-12-19T04:33:38.957Z,2.90
2018-12-19T04:36:11.290Z,2.90
2018-12-19T04:38:44.097Z,3.10
2018-12-19T04:41:16.467Z,3.10
2018-12-19T04:43:48.754Z,3.10
2018-12-19T04:46:21.099Z,3.20
2018-12-19T04:48:53.510Z,3.20
2018-12-19T04:51:25.829Z,3.10
2018-12-19T04:53:58.198Z,3.10
2018-12-19T04:56:30.530Z,3.30
2018-12-19T04:59:03.082Z,3.40
2018-12-19T05:01:35.506Z,3.40
2018-12-19T05:04:07.837Z,3.40
2018-12-19T05:06:40.155Z,3.30
2018-12-19T05:09:12.465Z,3.20
2018-12-19T05:11:45.032Z,3.30
2018-12-19T05:14:17.712Z,3.10
2018-12-19T05:16:50.167Z,3.00
2018-12-19T05:19:22.456Z,3.20
2018-12-19T05:21:54.776Z,3.00
2018-12-19T05:24:27.078Z,3.20
2018-12-19T05:26:59.414Z,3.30
2018-12-19T05:29:31.765Z,3.20
2018-12-19T05:32:04.208Z,3.30
2018-12-19T05:34:36.532Z,3.40
2018-12-19T05:37:08.842Z,3.50
2018-12-19T05:39:41.161Z,3.50
2018-12-19T05:42:13.499Z,3.30
2018-12-19T05:44:45.815Z,3.40
2018-12-19T05:47:18.532Z,3.30
2018-12-19T05:49:51.379Z,3.40
2018-12-19T05:52:25.604Z,3.40
2018-12-19T05:54:58.088Z,3.50
2018-12-19T05:57:30.796Z,3.50
2018-12-19T06:00:04.421Z,3.40
2018-12-19T06:02:36.724Z,3.40
2018-12-19T06:05:09.137Z,3.40
2018-12-19T06:07:41.436Z,3.50
2018-12-19T06:10:13.731Z,3.50
2018-12-19T06:12:46.043Z,3.90
2018-12-19T06:15:18.371Z,3.90
2018-12-19T06:17:50.753Z,4.20
2018-12-19T06:20:23.046Z,4.30
2018-12-19T06:22:55.517Z,4.20
2018-12-19T06:25:27.810Z,4.20
2018-12-19T06:28:00.139Z,4.30
2018-12-19T06:30:32.772Z,4.40
2018-12-19T06:33:05.114Z,4.50
2018-12-19T06:35:37.531Z,4.60
2018-12-19T06:38:09.836Z,4.40
2018-12-19T06:40:42.215Z,4.00
2018-12-19T06:43:14.636Z,4.10
2018-12-19T06:45:46.935Z,4.10
2018-12-19T06:48:19.285Z,4.00
2018-12-19T06:50:51.584Z,3.90
2018-12-19T06:53:23.920Z,4.00
2018-12-19T06:55:56.433Z,3.80
2018-12-19T06:58:28.748Z,3.80
2018-12-19T07:01:01.019Z,3.90
2018-12-19T07:03:33.368Z,4.00
2018-12-19T07:06:05.806Z,3.60
2018-12-19T07:08:38.133Z,3.80
2018-12-19T07:11:10.467Z,3.80
2018-12-19T07:13:42.811Z,3.60
2018-12-19T07:16:15.184Z,3.80
2018-12-19T07:18:47.535Z,3.80
2018-12-19T07:21:19.873Z,3.90
2018-12-19T07:23:52.323Z,3.80
2018-12-19T07:26:24.631Z,3.90
2018-12-19T07:28:57.064Z,3.90
2018-12-19T07:31:29.381Z,3.70
2018-12-19T07:34:01.749Z,3.70
2018-12-19T07:36:34.138Z,3.80
2018-12-19T07:39:07.109Z,3.70
2018-12-19T07:41:39.397Z,3.90
2018-12-19T07:44:11.717Z,3.80
2018-12-19T07:46:44.033Z,3.90
2018-12-19T07:49:16.464Z,4.00
2018-12-19T07:51:48.794Z,4.00
2018-12-19T07:54:21.157Z,3.90
2018-12-19T07:56:53.610Z,4.00
2018-12-19T07:59:26.015Z,4.00
2018-12-19T08:01:58.292Z,4.00
2018-12-19T08:04:30.972Z,3.90
2018-12-19T08:07:03.309Z,3.90
2018-12-19T08:09:35.724Z,4.00
2018-12-19T08:12:08.028Z,3.90
2018-12-19T08:14:40.360Z,4.00
2018-12-19T08:17:12.720Z,3.90
2018-12-19T08:19:45.080Z,3.90
2018-12-19T08:22:17.364Z,3.80
2018-12-19T08:24:49.703Z,4.10
2018-12-19T08:27:22.004Z,4.10
2018-12-19T08:29:54.353Z,4.10
2018-12-19T08:32:26.763Z,4.10
2018-12-19T08:34:59.309Z,3.90
2018-12-19T08:37:31.808Z,4.00
2018-12-19T08:40:05.551Z,4.00
2018-12-19T08:42:37.847Z,3.90
2018-12-19T08:45:10.205Z,3.90
2018-12-19T08:47:42.492Z,4.00
2018-12-19T08:50:14.856Z,4.10
2018-12-19T08:52:48.349Z,4.00
2018-12-19T08:55:20.701Z,4.20
2018-12-19T08:57:53.118Z,4.30
2018-12-19T09:00:25.481Z,4.10
2018-12-19T09:02:57.761Z,4.20
2018-12-19T09:05:30.121Z,4.30
2018-12-19T09:08:02.551Z,4.10
2018-12-19T09:10:34.954Z,4.00
2018-12-19T09:13:12.390Z,4.00
2018-12-19T09:15:50.545Z,4.00
2018-12-19T09:18:24.681Z,3.90
2018-12-19T09:20:58.152Z,3.80
2018-12-19T09:23:32.137Z,4.00
2018-12-19T09:26:05.609Z,4.10
2018-12-19T09:28:37.964Z,4.00
2018-12-19T09:31:10.280Z,4.00
2018-12-19T09:33:42.851Z,4.00
2018-12-19T09:36:15.264Z,4.10
2018-12-19T09:38:47.692Z,4.10
2018-12-19T09:41:20.059Z,4.20
2018-12-19T09:43:52.541Z,4.30
2018-12-19T09:46:24.846Z,4.20
2018-12-19T09:48:57.249Z,4.10
2018-12-19T09:51:29.753Z,4.10
2018-12-19T09:54:02.448Z,4.10
2018-12-19T09:56:34.935Z,4.20
2018-12-19T09:59:07.341Z,4.10
2018-12-19T10:01:39.655Z,4.10
2018-12-19T10:04:12.022Z,4.20
2018-12-19T10:06:44.422Z,4.20
2018-12-19T10:09:16.897Z,4.20
2018-12-19T10:11:49.291Z,4.20
2018-12-19T10:14:21.668Z,4.30
2018-12-19T10:16:54.119Z,4.40
2018-12-19T10:19:26.545Z,4.50
2018-12-19T10:21:59.134Z,4.60
2018-12-19T10:24:37.495Z,4.70
2018-12-19T10:27:11.890Z,4.60
2018-12-19T10:29:44.189Z,4.80
2018-12-19T10:32:16.555Z,4.70
2018-12-19T10:34:48.893Z,4.90
2018-12-19T10:37:21.196Z,4.80
2018-12-19T10:39:53.727Z,4.90
2018-12-19T10:42:26.014Z,5.00
2018-12-19T10:44:58.354Z,5.00
2018-12-19T10:47:30.661Z,4.70
2018-12-19T10:50:04.040Z,4.80
2018-12-19T10:52:36.479Z,4.60
2018-12-19T10:55:09.654Z,4.60
2018-12-19T10:57:42.033Z,4.80
2018-12-19T11:00:20.115Z,4.90
2018-12-19T11:02:52.434Z,4.90
2018-12-19T11:05:25.339Z,4.80
2018-12-19T11:07:58.974Z,4.80
2018-12-19T11:10:32.387Z,4.60
2018-12-19T11:13:11.639Z,4.60
2018-12-19T11:15:43.927Z,4.80
2018-12-19T11:18:16.306Z,4.80
2018-12-19T11:20:48.705Z,4.90
2018-12-19T11:23:21.026Z,4.90
2018-12-19T11:25:53.362Z,5.00
2018-12-19T11:28:25.693Z,5.00
2018-12-19T11:30:58.149Z,5.00
2018-12-19T11:33:30.467Z,5.20
2018-12-19T11:36:02.919Z,5.20
2018-12-19T11:38:35.244Z,5.10
2018-12-19T11:41:07.725Z,5.10
2018-12-19T11:43:40.048Z,5.00
2018-12-19T11:46:12.357Z,4.90
2018-12-19T11:48:44.709Z,4.80
2018-12-19T11:51:17.014Z,5.10
2018-12-19T11:53:49.377Z,4.80
2018-12-19T11:56:21.783Z,4.90
2018-12-19T11:58:54.120Z,4.80
2018-12-19T12:01:26.510Z,4.80
2018-12-19T12:03:58.949Z,4.80
2018-12-19T12:06:32.323Z,4.80
2018-12-19T12:09:07.061Z,4.90
2018-12-19T12:11:45.458Z,4.70
2018-12-19T12:14:13.951Z,4.50
2018-12-19T12:16:47.538Z,4.60
2018-12-19T12:19:20.025Z,4.80
2018-12-19T12:21:52.419Z,4.90
2018-12-19T12:24:24.883Z,4.90
2018-12-19T12:26:57.186Z,4.90
2018-12-19T12:29:29.522Z,5.00
2018-12-19T12:32:02.911Z,4.90
2018-12-19T12:34:35.302Z,5.00
2018-12-19T12:37:07.827Z,5.20
2018-12-19T12:39:40.164Z,5.10
2018-12-19T12:42:12.532Z,5.20
2018-12-19T12:44:45.202Z,5.20
2018-12-19T12:47:18.348Z,5.10
2018-12-19T12:49:50.754Z,5.30
2018-12-19T12:52:23.053Z,5.20
2018-12-19T12:54:55.371Z,5.20
2018-12-19T12:57:27.693Z,5.00
2018-12-19T13:00:00.042Z,5.10
2018-12-19T13:02:32.476Z,5.10
2018-12-19T13:05:05.031Z,5.20
2018-12-19T13:07:37.417Z,5.30
2018-12-19T13:10:10.104Z,5.20
2018-12-19T13:12:42.450Z,5.40
2018-12-19T13:15:19.391Z,5.40
2018-12-19T13:17:52.160Z,5.30
2018-12-19T13:20:24.611Z,5.30
2018-12-19T13:22:57.316Z,5.30
2018-12-19T13:25:29.627Z,5.20
2018-12-19T13:28:02.397Z,5.20
2018-12-19T13:30:34.745Z,5.10
2018-12-19T13:33:07.180Z,5.30
2018-12-19T13:35:39.512Z,5.20
2018-12-19T13:38:11.871Z,5.30
2018-12-19T13:40:44.315Z,5.40
2018-12-19T13:43:16.684Z,5.40
2018-12-19T13:45:49.036Z,5.40
2018-12-19T13:48:21.387Z,5.40
2018-12-19T13:50:53.727Z,5.30
2018-12-19T13:53:26.434Z,5.50
2018-12-19T13:55:58.798Z,5.60
2018-12-19T13:58:31.350Z,5.60
2018-12-19T14:01:03.776Z,5.70
2018-12-19T14:03:36.146Z,5.60
2018-12-19T14:06:08.469Z,5.50
2018-12-19T14:08:40.841Z,5.40
2018-12-19T14:11:13.271Z,5.40
2018-12-19T14:13:45.654Z,5.40
2018-12-19T14:16:18.170Z,5.40
2018-12-19T14:18:50.471Z,5.50
2018-12-19T14:21:23.053Z,5.50
2018-12-19T14:23:55.498Z,5.60
2018-12-19T14:26:27.826Z,5.50
2018-12-19T14:29:00.187Z,5.70
2018-12-19T14:31:32.628Z,5.80
2018-12-19T14:34:04.931Z,5.70
2018-12-19T14:36:37.357Z,5.60
2018-12-19T14:39:09.878Z,5.50
2018-12-19T14:41:42.359Z,5.40
2018-12-19T14:44:14.718Z,5.30
2018-12-19T14:46:47.084Z,5.40
2018-12-19T14:49:19.544Z,5.20
2018-12-19T14:51:51.876Z,5.40
2018-12-19T14:54:24.221Z,5.40
2018-12-19T14:56:56.629Z,5.40
2018-12-19T14:59:28.918Z,5.30
2018-12-19T15:02:01.738Z,5.30
2018-12-19T15:04:34.811Z,5.20
2018-12-19T15:07:07.287Z,5.20
2018-12-19T15:09:39.679Z,5.30
2018-12-19T15:12:12.013Z,5.40
2018-12-19T15:14:44.358Z,5.50
2018-12-19T15:17:17.148Z,5.40
2018-12-19T15:19:49.678Z,5.40
2018-12-19T15:22:22.037Z,5.40
2018-12-19T15:24:54.381Z,5.40
2018-12-19T15:27:26.866Z,5.30
2018-12-19T15:29:59.174Z,5.30
2018-12-19T15:32:31.553Z,5.40
2018-12-19T15:35:04.465Z,5.50
2018-12-19T15:37:36.802Z,5.40
2018-12-19T15:40:09.252Z,5.50
2018-12-19T15:42:41.755Z,5.60
2018-12-19T15:45:14.200Z,5.60
2018-12-19T15:47:46.516Z,5.50
2018-12-19T15:50:19.013Z,5.60
2018-12-19T15:52:51.351Z,5.70
2018-12-19T15:55:23.714Z,5.70
2018-12-19T15:57:56.040Z,5.60
2018-12-19T16:00:28.337Z,5.70
2018-12-19T16:03:00.662Z,5.60
2018-12-19T16:05:33.043Z,5.50
2018-12-19T16:08:05.676Z,5.30
2018-12-19T16:10:37.996Z,5.60
2018-12-19T16:13:10.551Z,5.50
2018-12-19T16:15:44.489Z,5.60
2018-12-19T16:18:17.235Z,5.40
2018-12-19T16:20:49.575Z,5.60
2018-12-19T16:23:22.179Z,5.50
2018-12-19T16:25:54.580Z,5.50
2018-12-19T16:28:27.245Z,5.70
2018-12-19T16:30:59.528Z,5.60
2018-12-19T16:33:32.092Z,5.60
2018-12-19T16:36:04.523Z,5.70
2018-12-19T16:38:37.246Z,5.80
2018-12-19T16:41:09.564Z,5.90
2018-12-19T16:43:42.377Z,5.90
2018-12-19T16:46:14.785Z,5.80
2018-12-19T16:48:47.319Z,5.80
2018-12-19T16:51:19.716Z,5.70
2018-12-19T16:53:52.081Z,5.70
2018-12-19T16:56:24.691Z,5.70
2018-12-19T16:58:57.318Z,5.90
2018-12-19T17:01:29.608Z,6.00
2018-12-19T17:04:02.058Z,5.90
2018-12-19T17:06:34.424Z,5.70
2018-12-19T17:09:07.645Z,5.80
2018-12-19T17:11:40.080Z,5.90
2018-12-19T17:14:12.669Z,5.90
2018-12-19T17:16:45.317Z,5.60
2018-12-19T17:19:19.137Z,5.80
2018-12-19T17:21:51.408Z,5.70
2018-12-19T17:24:55.027Z,5.60
2018-12-19T17:27:27.491Z,5.70
2018-12-19T17:29:59.897Z,5.60
2018-12-19T17:32:32.680Z,5.70
2018-12-19T17:35:06.321Z,5.70
2018-12-19T17:37:39.047Z,5.50
2018-12-19T17:40:11.418Z,5.50
2018-12-19T17:42:43.871Z,5.60
2018-12-19T17:45:16.291Z,5.60
2018-12-19T17:47:49.159Z,5.60
2018-12-19T17:50:21.463Z,5.60
2018-12-19T17:52:53.820Z,5.60
2018-12-19T17:55:26.193Z,5.50
2018-12-19T17:57:58.492Z,5.40
2018-12-19T18:00:30.926Z,5.30
2018-12-19T18:03:03.368Z,5.30
2018-12-19T18:05:36.028Z,5.20
2018-12-19T18:08:08.348Z,5.20
2018-12-19T18:10:40.822Z,5.20
2018-12-19T18:13:13.181Z,5.30
2018-12-19T18:15:45.543Z,5.20
2018-12-19T18:18:17.872Z,5.10
2018-12-19T18:20:50.293Z,5.20
2018-12-19T18:23:22.600Z,5.30
2018-12-19T18:25:54.971Z,5.30
2018-12-19T18:28:27.420Z,5.40
2018-12-19T18:30:59.789Z,5.20
2018-12-19T18:33:32.191Z,5.30
2018-12-19T18:36:04.645Z,5.50
2018-12-19T18:38:36.954Z,5.50
2018-12-19T18:41:09.487Z,5.30
2018-12-19T18:43:42.065Z,5.50
2018-12-19T18:46:14.444Z,5.50
2018-12-19T18:48:46.791Z,5.50
2018-12-19T18:51:19.688Z,5.40
2018-12-19T18:53:52.005Z,5.50
2018-12-19T18:56:24.639Z,5.40
2018-12-19T18:58:56.952Z,5.40
2018-12-19T19:01:29.448Z,5.30
2018-12-19T19:04:01.862Z,5.30
2018-12-19T19:06:34.209Z,5.50
2018-12-19T19:09:06.820Z,5.40
2018-12-19T19:11:39.573Z,5.30
2018-12-19T19:14:12.215Z,5.30
2018-12-19T19:16:44.843Z,5.40
2018-12-19T19:19:17.308Z,5.50
2018-12-19T19:21:50.287Z,5.60
2018-12-19T19:24:23.291Z,5.50
2018-12-19T19:26:55.676Z,5.50
2018-12-19T19:29:28.104Z,5.30
2018-12-19T19:32:00.616Z,5.30
2018-12-19T19:34:33.115Z,5.40
2018-12-19T19:37:05.473Z,5.40
2018-12-19T19:39:37.872Z,5.50
2018-12-19T19:42:13.450Z,5.40
2018-12-19T19:44:46.067Z,5.40
2018-12-19T19:47:18.507Z,5.50
2018-12-19T19:49:50.827Z,5.50
2018-12-19T19:52:23.905Z,5.50
2018-12-19T19:54:56.864Z,5.40
2018-12-19T19:57:29.181Z,5.40
2018-12-19T20:00:01.482Z,5.50
2018-12-19T20:02:33.795Z,5.40
2018-12-19T20:05:06.737Z,5.40
2018-12-19T20:07:39.078Z,5.50
2018-12-19T20:10:11.636Z,5.50
2018-12-19T20:12:44.063Z,5.40
2018-12-19T20:15:16.663Z,5.50
2018-12-19T20:17:50.279Z,5.50
2018-12-19T20:20:22.704Z,5.50
2018-12-19T20:22:55.059Z,5.50
2018-12-19T20:25:27.374Z,5.40
2018-12-19T20:27:59.695Z,5.40
2018-12-19T20:30:32.352Z,5.60
2018-12-19T20:33:04.731Z,5.50
2018-12-19T20:35:37.028Z,5.40
2018-12-19T20:38:09.391Z,5.60
2018-12-19T20:40:41.936Z,5.70
2018-12-19T20:43:14.263Z,5.70
2018-12-19T20:45:46.606Z,5.70
2018-12-19T20:48:18.921Z,5.70
2018-12-19T20:50:51.300Z,5.70
2018-12-19T20:53:23.628Z,5.50
2018-12-19T20:55:56.186Z,5.60
2018-12-19T20:58:28.726Z,5.50
2018-12-19T21:01:01.756Z,5.60
2018-12-19T21:03:34.272Z,5.60
2018-12-19T21:06:06.615Z,5.60
2018-12-19T21:08:39.136Z,5.80
2018-12-19T21:11:11.519Z,5.60
2018-12-19T21:13:46.840Z,5.40
2018-12-19T21:16:20.909Z,5.60
2018-12-19T21:18:53.594Z,5.50
2018-12-19T21:21:26.179Z,5.50
2018-12-19T21:23:58.676Z,5.50
2018-12-19T21:26:30.999Z,5.50
2018-12-19T21:29:04.778Z,5.70
2018-12-19T21:31:37.418Z,5.60
2018-12-19T21:34:10.013Z,5.50
2018-12-19T21:36:42.370Z,5.50
2018-12-19T21:39:15.145Z,5.40
2018-12-19T21:41:47.564Z,5.60
2018-12-19T21:44:21.364Z,5.70
2018-12-19T21:46:53.920Z,5.70
2018-12-19T21:49:26.433Z,5.50
2018-12-19T21:51:59.006Z,5.50
2018-12-19T21:54:31.496Z,5.40
2018-12-19T21:57:04.136Z,5.50
2018-12-19T21:59:36.683Z,5.40
2018-12-19T22:02:09.023Z,5.40
2018-12-19T22:04:41.468Z,5.40
2018-12-19T22:07:13.900Z,5.30
2018-12-19T22:09:46.389Z,5.40
2018-12-19T22:12:18.849Z,5.40
2018-12-19T22:14:51.450Z,5.60
2018-12-19T22:17:29.648Z,5.60
2018-12-19T22:20:02.317Z,5.50
2018-12-19T22:22:34.931Z,5.40
2018-12-19T22:25:07.456Z,5.50
2018-12-19T22:27:39.855Z,5.40
2018-12-19T22:30:12.814Z,5.40
2018-12-19T22:32:46.222Z,5.50
2018-12-19T22:35:18.804Z,5.30
2018-12-19T22:37:52.519Z,5.40
2018-12-19T22:40:26.700Z,5.20
2018-12-19T22:42:59.306Z,5.30
2018-12-19T22:45:31.766Z,5.40
2018-12-19T22:48:04.242Z,5.40
2018-12-19T22:50:36.915Z,5.40
2018-12-19T22:53:09.454Z,5.50
2018-12-19T22:55:41.939Z,5.60
2018-12-19T22:58:14.651Z,5.20
2018-12-19T23:00:54.308Z,5.40
2018-12-19T23:04:36.055Z,5.50
2018-12-19T23:07:08.607Z,5.40
2018-12-19T23:09:40.928Z,5.40
2018-12-19T23:12:13.343Z,5.50
2018-12-19T23:14:45.883Z,5.50
2018-12-19T23:17:24.022Z,5.60
2018-12-19T23:19:56.503Z,5.40
2018-12-19T23:22:30.476Z,5.50
2018-12-19T23:25:04.361Z,5.60
2018-12-19T23:27:36.889Z,5.40
2018-12-19T23:30:10.280Z,5.40
2018-12-19T23:32:42.671Z,5.40
2018-12-19T23:35:15.323Z,5.50
2018-12-19T23:37:47.709Z,5.50
2018-12-19T23:40:20.096Z,5.60
2018-12-19T23:42:52.485Z,5.60
2018-12-19T23:45:24.794Z,5.70
2018-12-19T23:47:57.111Z,5.60
2018-12-19T23:50:29.522Z,5.70
2018-12-19T23:53:02.074Z,5.60
2018-12-19T23:55:34.535Z,5.80
2018-12-19T23:58:07.106Z,5.60
